Time;durP1;ratioP1;P1;durP2;ratioP2;P2;SDS_P1;SDS_P2;PMS_P1;PMS_P2;Temp;Humidity;BMP_temperature;BMP_pressure;BME280_temperature;BME280_humidity;BME280_pressure;Samples;Min_cycle;Max_cycle;Signal;HPM_P1;HPM_P2
2023/11/26 00:00:14;;;;;;;7.70;4.78;;;;;;;1.86;82.40;98377.94;5056821;28;20033;-78
2023/11/26 00:02:39;;;;;;;7.07;4.85;;;;;;;1.93;82.27;98397.16;5050729;28;20954;-79
2023/11/26 00:05:05;;;;;;;9.77;4.88;;;;;;;1.96;81.42;98388.06;5062758;28;20033;-79
2023/11/26 00:07:31;;;;;;;6.57;4.68;;;;;;;1.78;82.23;98404.47;5064381;28;20087;-79
2023/11/26 00:09:56;;;;;;;8.23;5.40;;;;;;;1.88;82.41;98404.06;5062807;28;20032;-79
2023/11/26 00:12:22;;;;;;;6.30;5.00;;;;;;;1.78;82.43;98407.09;5041329;28;20691;-79
2023/11/26 00:14:48;;;;;;;7.50;5.05;;;;;;;1.66;82.34;98395.53;5062548;28;20488;-79
2023/11/26 00:17:14;;;;;;;6.78;4.32;;;;;;;1.84;82.25;98403.63;5044839;28;20043;-79
2023/11/26 00:19:40;;;;;;;8.95;5.10;;;;;;;1.26;83.22;98400.00;5065434;28;20041;-78
2023/11/26 00:22:06;;;;;;;19.15;6.20;;;;;;;0.59;83.72;98401.81;5050343;28;20032;-81
2023/11/26 00:24:31;;;;;;;10.00;7.95;;;;;;;0.26;84.46;98409.53;5063412;28;20028;-80
2023/11/26 00:26:57;;;;;;;12.07;7.13;;;;;;;-0.42;86.39;98412.09;5048372;28;20067;-80
2023/11/26 00:29:22;;;;;;;20.80;7.80;;;;;;;-0.05;87.28;98415.22;5064244;28;20033;-80
2023/11/26 00:31:49;;;;;;;10.07;6.75;;;;;;;-0.01;87.66;98421.69;5065680;28;20028;-80
2023/11/26 00:34:14;;;;;;;7.85;6.60;;;;;;;0.04;87.67;98412.44;5064494;28;20142;-80
2023/11/26 00:36:39;;;;;;;13.57;6.45;;;;;;;0.81;87.11;98405.94;5064872;28;20483;-80
2023/11/26 00:39:05;;;;;;;9.18;6.18;;;;;;;0.66;84.62;98400.00;5067818;28;20036;-81
2023/11/26 00:41:30;;;;;;;14.32;7.70;;;;;;;0.12;85.56;98412.25;5061948;28;20024;-79
2023/11/26 00:43:55;;;;;;;11.35;6.63;;;;;;;0.94;85.54;98410.44;5058880;28;20031;-80
2023/11/26 00:46:21;;;;;;;11.48;7.45;;;;;;;0.99;83.63;98410.63;5063675;28;20032;-79
2023/11/26 00:48:46;;;;;;;10.02;5.75;;;;;;;1.20;83.88;98411.28;5061671;28;20055;-80
2023/11/26 00:51:22;;;;;;;9.07;6.13;;;;;;;1.16;83.91;98417.94;5048329;28;20025;-79
2023/11/26 00:53:51;;;;;;;14.40;6.18;;;;;;;1.49;83.29;98420.63;5060575;28;20052;-80
2023/11/26 00:56:16;;;;;;;13.63;5.93;;;;;;;1.34;82.75;98412.94;5060930;28;20032;-80
2023/11/26 00:58:42;;;;;;;10.20;6.20;;;;;;;1.62;82.51;98430.38;5044623;28;20111;-80
2023/11/26 01:01:07;;;;;;;10.93;5.47;;;;;;;1.46;82.40;98421.84;5055877;28;20036;-80
2023/11/26 01:03:32;;;;;;;14.27;6.60;;;;;;;1.33;82.29;98423.66;5065906;28;20123;-79
2023/11/26 01:05:58;;;;;;;9.95;5.70;;;;;;;1.59;81.93;98418.44;5064627;28;20038;-80
2023/11/26 01:08:24;;;;;;;11.20;5.53;;;;;;;1.55;81.79;98426.91;5058826;28;20500;-80
2023/11/26 01:10:50;;;;;;;8.63;6.05;;;;;;;1.49;81.76;98431.97;5063404;28;20097;-80
2023/11/26 01:13:16;;;;;;;7.07;5.45;;;;;;;1.69;81.81;98431.97;5059250;28;20025;-80
2023/11/26 01:15:42;;;;;;;9.20;5.90;;;;;;;1.65;81.52;98429.94;5056234;28;20028;-80
2023/11/26 01:18:07;;;;;;;8.85;5.35;;;;;;;1.47;81.62;98428.72;5063015;28;20385;-80
2023/11/26 01:20:33;;;;;;;10.10;5.85;;;;;;;1.64;81.51;98431.75;5056949;28;20028;-80
2023/11/26 01:22:58;;;;;;;10.35;6.60;;;;;;;1.56;81.01;98420.63;5061859;28;20048;-79
2023/11/26 01:25:23;;;;;;;7.93;5.68;;;;;;;1.37;81.40;98417.81;5057267;28;20028;-80
2023/11/26 01:27:49;;;;;;;10.55;5.43;;;;;;;1.62;81.61;98440.88;5066943;28;20033;-80
2023/11/26 01:30:14;;;;;;;8.52;5.43;;;;;;;1.64;81.23;98450.16;5068081;28;20036;-80
2023/11/26 01:32:40;;;;;;;10.13;6.25;;;;;;;1.63;80.83;98443.31;5066891;28;20025;-80
2023/11/26 01:35:05;;;;;;;7.20;4.97;;;;;;;1.62;81.05;98441.66;5071649;28;20044;-79
2023/11/26 01:37:32;;;;;;;12.85;6.15;;;;;;;1.62;80.88;98446.16;5057752;28;20023;-80
2023/11/26 01:39:58;;;;;;;9.65;7.18;;;;;;;1.59;81.12;98442.09;5060669;28;20035;-80
2023/11/26 01:42:23;;;;;;;12.93;5.70;;;;;;;1.56;81.55;98445.13;5064073;28;20028;-80
2023/11/26 01:44:49;;;;;;;7.13;5.70;;;;;;;1.46;81.65;98429.72;5068923;28;20053;-79
2023/11/26 01:47:14;;;;;;;14.73;6.40;;;;;;;1.59;81.50;98446.53;5067212;28;20033;-80
2023/11/26 01:49:40;;;;;;;8.57;5.63;;;;;;;1.47;81.91;98439.25;5071927;28;20166;-79
2023/11/26 01:52:08;;;;;;;7.53;5.82;;;;;;;1.33;81.93;98445.47;5071406;28;20032;-79
2023/11/26 01:54:35;;;;;;;9.55;6.07;;;;;;;1.23;81.82;98442.44;5061426;28;20027;-79
2023/11/26 01:57:04;;;;;;;11.07;6.47;;;;;;;1.49;81.82;98453.00;5065543;28;20097;-80
2023/11/26 01:59:30;;;;;;;8.13;5.72;;;;;;;1.29;81.78;98448.72;5068889;28;20029;-79
2023/11/26 02:01:56;;;;;;;12.52;5.72;;;;;;;1.55;81.62;98450.59;5066609;28;20703;-80
2023/11/26 02:04:21;;;;;;;7.63;5.60;;;;;;;1.34;81.14;98454.19;5064143;28;20115;-80
2023/11/26 02:06:48;;;;;;;9.70;6.70;;;;;;;1.37;81.55;98444.09;5069962;28;20455;-80
2023/11/26 02:09:16;;;;;;;9.93;5.90;;;;;;;1.30;81.58;98459.03;5051558;28;20492;-80
2023/11/26 02:11:46;;;;;;;10.98;6.43;;;;;;;1.37;81.70;98454.59;5051923;28;20500;-80
2023/11/26 02:14:11;;;;;;;12.65;6.45;;;;;;;1.43;81.02;98453.81;5048324;28;20090;-80
2023/11/26 02:16:37;;;;;;;8.23;5.97;;;;;;;1.40;81.95;98462.06;5062719;28;20362;-80
2023/11/26 02:19:10;;;;;;;11.15;6.68;;;;;;;1.24;81.53;98462.47;5068677;28;20093;-80
2023/11/26 02:21:35;;;;;;;12.18;6.22;;;;;;;1.29;81.18;98462.66;5053582;28;20028;-80
2023/11/26 02:24:01;;;;;;;17.90;6.60;;;;;;;1.15;81.93;98465.47;5048813;28;20078;-80
2023/11/26 02:26:26;;;;;;;12.32;6.82;;;;;;;1.16;82.33;98469.69;5066591;28;20488;-80
2023/11/26 02:28:51;;;;;;;9.23;6.47;;;;;;;1.26;82.00;98478.03;5064541;28;20479;-80
2023/11/26 02:31:17;;;;;;;13.65;6.97;;;;;;;1.21;82.08;98476.00;5066304;28;20040;-80
2023/11/26 02:33:42;;;;;;;9.25;6.43;;;;;;;1.23;82.03;98481.03;5064965;28;20515;-80
2023/11/26 02:36:08;;;;;;;9.38;6.18;;;;;;;1.25;82.47;98481.66;5066180;28;20507;-80
2023/11/26 02:38:33;;;;;;;9.27;6.93;;;;;;;1.28;82.08;98476.00;5051668;28;20110;-80
2023/11/26 02:40:58;;;;;;;11.52;7.05;;;;;;;1.37;81.94;98475.63;5086041;28;20029;-80
2023/11/26 02:43:24;;;;;;;11.15;6.53;;;;;;;1.20;82.19;98474.34;5061033;28;20040;-79
2023/11/26 02:45:56;;;;;;;11.57;7.45;;;;;;;1.05;82.40;98475.53;5053509;28;20115;-80
2023/11/26 02:48:23;;;;;;;12.23;6.88;;;;;;;1.05;82.61;98471.06;5068281;28;20029;-80
2023/11/26 02:50:50;;;;;;;12.18;7.82;;;;;;;0.99;82.87;98477.13;5067374;28;20040;-80
2023/11/26 02:53:15;;;;;;;9.95;6.20;;;;;;;1.39;81.51;98475.44;5065237;28;20024;-81
2023/11/26 02:55:40;;;;;;;13.18;7.35;;;;;;;1.16;81.03;98457.38;5044935;28;20158;-80
2023/11/26 02:58:06;;;;;;;11.98;6.80;;;;;;;1.36;80.59;98473.19;5065761;28;20055;-80
2023/11/26 03:00:34;;;;;;;14.80;8.38;;;;;;;1.27;81.06;98462.06;5062288;28;20748;-80
2023/11/26 03:02:59;;;;;;;10.38;7.10;;;;;;;1.21;81.22;98454.16;5060513;28;20483;-80
2023/11/26 03:05:24;;;;;;;10.82;7.50;;;;;;;1.26;81.07;98464.88;5064888;28;20032;-80
2023/11/26 03:07:51;;;;;;;19.35;7.63;;;;;;;1.38;81.06;98471.16;5068346;28;20028;-80
2023/11/26 03:13:20;;;;;;;15.70;7.43;;;;;;;1.38;81.45;98479.06;5063519;28;20154;-80
2023/11/26 03:15:48;;;;;;;10.15;7.22;;;;;;;1.37;81.18;98470.38;5062122;28;20036;-80
2023/11/26 03:18:14;;;;;;;13.32;8.63;;;;;;;1.29;81.47;98477.66;5066545;28;20028;-80
2023/11/26 03:20:41;;;;;;;14.88;8.82;;;;;;;1.18;82.22;98481.63;5067584;28;20043;-80
2023/11/26 03:23:09;;;;;;;11.77;8.20;;;;;;;1.30;81.64;98466.91;5062361;28;20056;-80
2023/11/26 03:25:36;;;;;;;14.43;8.23;;;;;;;1.40;81.23;98480.47;5066148;28;20021;-80
2023/11/26 03:28:04;;;;;;;11.10;8.10;;;;;;;1.03;81.88;98474.91;5046220;28;20040;-80
2023/11/26 03:30:29;;;;;;;12.90;9.10;;;;;;;1.17;82.33;98482.66;5067742;28;20036;-79
2023/11/26 03:32:56;;;;;;;16.60;9.38;;;;;;;1.29;81.97;98475.81;5063666;28;20016;-79
2023/11/26 03:35:22;;;;;;;16.15;10.23;;;;;;;1.14;81.41;98480.41;5070686;28;20036;-79
2023/11/26 03:37:48;;;;;;;20.35;8.77;;;;;;;1.26;81.61;98473.59;5067850;28;20527;-80
2023/11/26 03:40:13;;;;;;;16.42;9.05;;;;;;;1.21;82.07;98470.75;5067283;28;20024;-80
2023/11/26 03:42:39;;;;;;;16.02;10.25;;;;;;;1.23;81.25;98473.97;5063292;28;20043;-80
2023/11/26 03:45:08;;;;;;;16.25;8.23;;;;;;;1.26;81.25;98478.84;5063710;28;20074;-80
2023/11/26 03:47:33;;;;;;;19.23;9.38;;;;;;;1.16;81.14;98472.31;5065688;28;20047;-80
2023/11/26 03:49:59;;;;;;;16.23;10.10;;;;;;;1.15;81.89;98484.69;5062404;28;20599;-80
2023/11/26 03:52:24;;;;;;;14.98;9.38;;;;;;;1.17;81.75;98487.91;5058639;28;20040;-80
2023/11/26 03:54:50;;;;;;;15.45;9.52;;;;;;;1.21;81.61;98491.75;5068738;28;20032;-79
2023/11/26 03:57:15;;;;;;;18.95;9.77;;;;;;;1.27;81.60;98492.78;5063621;28;20036;-80
2023/11/26 03:59:44;;;;;;;16.95;9.98;;;;;;;0.96;82.30;98498.53;5063666;28;20082;-80
2023/11/26 04:02:09;;;;;;;15.43;10.15;;;;;;;1.22;82.11;98503.09;5062834;28;20066;-80
2023/11/26 04:04:35;;;;;;;18.67;10.57;;;;;;;1.14;81.71;98495.38;5059124;28;20434;-80
2023/11/26 04:07:01;;;;;;;15.40;7.95;;;;;;;1.21;82.05;98502.28;5066143;28;20173;-80
2023/11/26 04:09:27;;;;;;;14.45;10.02;;;;;;;1.00;81.99;98497.16;5061972;28;22377;-79
2023/11/26 04:11:56;;;;;;;14.75;8.63;;;;;;;1.06;82.64;98504.25;5066229;28;20024;-80
2023/11/26 04:14:23;;;;;;;20.50;10.43;;;;;;;0.79;82.36;98491.19;5068027;28;20025;-80
2023/11/26 04:16:48;;;;;;;19.15;10.35;;;;;;;0.97;83.04;98499.34;5047285;28;20036;-79
2023/11/26 04:19:15;;;;;;;21.55;10.90;;;;;;;0.84;82.81;98494.03;5060430;28;20374;-80
2023/11/26 04:21:45;;;;;;;18.95;10.55;;;;;;;0.91;82.85;98493.06;5040269;28;20046;-80
2023/11/26 04:24:12;;;;;;;16.55;10.25;;;;;;;1.09;82.49;98506.47;5088332;28;20094;-79
2023/11/26 04:26:38;;;;;;;22.40;10.50;;;;;;;0.85;82.70;98496.47;5067913;28;20388;-80
2023/11/26 04:29:03;;;;;;;18.52;10.40;;;;;;;0.93;83.09;98506.81;5083744;28;20033;-80
2023/11/26 04:31:28;;;;;;;16.98;10.25;;;;;;;1.05;82.21;98502.59;5065613;28;20058;-80
2023/11/26 04:33:54;;;;;;;23.05;11.70;;;;;;;1.03;82.58;98503.81;5040512;28;20028;-80
2023/11/26 04:36:20;;;;;;;17.25;9.88;;;;;;;0.95;83.00;98510.06;5057237;28;20090;-79
2023/11/26 04:38:45;;;;;;;20.55;10.73;;;;;;;0.89;82.34;98510.84;5061521;28;20028;-80
2023/11/26 04:41:11;;;;;;;16.90;11.30;;;;;;;0.53;83.40;98518.09;5062812;28;20044;-80
2023/11/26 04:43:36;;;;;;;18.80;11.73;;;;;;;0.37;84.66;98523.66;5063197;28;20037;-80
2023/11/26 04:46:02;;;;;;;18.67;11.40;;;;;;;0.42;84.75;98516.00;5045382;28;20060;-80
2023/11/26 04:48:29;;;;;;;22.65;12.13;;;;;;;0.72;83.60;98527.94;5060164;28;20025;-80
2023/11/26 04:50:56;;;;;;;27.52;14.65;;;;;;;0.82;83.77;98524.94;5066580;28;20048;-80
2023/11/26 04:53:23;;;;;;;21.88;11.63;;;;;;;0.69;82.42;98534.38;5064121;28;20028;-80
2023/11/26 04:55:49;;;;;;;26.08;13.50;;;;;;;-0.35;84.36;98534.34;5068420;28;20442;-79
2023/11/26 04:58:14;;;;;;;25.52;13.18;;;;;;;-0.60;86.59;98527.03;5063537;28;20032;-79
2023/11/26 05:00:40;;;;;;;21.02;12.45;;;;;;;-0.16;88.37;98530.31;5064944;28;20115;-80
2023/11/26 05:03:05;;;;;;;22.73;13.75;;;;;;;-0.17;86.16;98526.03;5045762;28;20064;-80
2023/11/26 05:05:31;;;;;;;25.73;13.52;;;;;;;-0.34;87.19;98530.75;5062501;28;20096;-79
2023/11/26 05:07:57;;;;;;;27.08;14.43;;;;;;;-0.76;87.75;98535.91;5067067;28;20040;-80
2023/11/26 05:10:22;;;;;;;26.80;14.95;;;;;;;-0.93;87.41;98529.28;5045952;28;20477;-81
2023/11/26 05:12:48;;;;;;;27.98;14.40;;;;;;;-0.94;88.57;98540.75;5067233;28;20025;-80
2023/11/26 05:15:13;;;;;;;32.83;15.02;;;;;;;-1.08;89.03;98529.31;5068389;28;20032;-79
2023/11/26 05:17:39;;;;;;;28.50;15.68;;;;;;;-1.36;89.45;98532.75;5063565;28;20036;-80
2023/11/26 05:20:06;;;;;;;32.55;15.75;;;;;;;-1.28;90.12;98537.88;5044852;28;20040;-80
2023/11/26 05:22:31;;;;;;;24.23;13.20;;;;;;;-0.04;88.91;98537.47;5050005;28;20040;-80
2023/11/26 05:24:56;;;;;;;26.83;13.10;;;;;;;0.58;85.30;98541.97;5059392;28;20086;-80
2023/11/26 05:27:22;;;;;;;22.58;13.23;;;;;;;0.59;83.83;98533.91;5066094;28;20432;-80
2023/11/26 05:29:47;;;;;;;38.70;17.30;;;;;;;-0.80;85.55;98534.66;5063558;28;20389;-80
2023/11/26 05:32:12;;;;;;;32.67;17.85;;;;;;;-1.04;87.50;98542.84;5063020;28;20020;-80
2023/11/26 05:34:38;;;;;;;24.67;13.07;;;;;;;-0.12;87.31;98548.09;5061817;28;20047;-79
2023/11/26 05:37:03;;;;;;;36.95;15.85;;;;;;;-0.66;86.60;98552.19;5027578;28;20052;-80
2023/11/26 05:39:29;;;;;;;30.77;15.85;;;;;;;-0.73;86.02;98561.75;5059464;28;20037;-79
2023/11/26 05:41:55;;;;;;;24.50;12.73;;;;;;;-0.06;87.13;98557.00;5059990;28;20044;-79
2023/11/26 05:44:20;;;;;;;25.27;12.77;;;;;;;0.40;86.17;98563.47;5063281;28;20024;-80
2023/11/26 05:46:46;;;;;;;21.15;12.23;;;;;;;0.87;83.57;98554.88;5064755;28;20119;-80
2023/11/26 05:49:12;;;;;;;23.63;12.75;;;;;;;0.83;83.36;98561.50;5064617;28;20040;-80
2023/11/26 05:51:37;;;;;;;24.15;11.75;;;;;;;1.22;81.84;98560.91;5066408;28;20036;-80
2023/11/26 05:54:03;;;;;;;24.20;12.43;;;;;;;0.85;82.63;98561.34;5061839;28;20098;-80
2023/11/26 05:56:28;;;;;;;27.70;13.43;;;;;;;1.00;81.96;98559.41;5066966;28;20080;-80
2023/11/26 05:58:55;;;;;;;28.92;14.23;;;;;;;0.96;82.44;98572.09;5026383;28;20032;-79
2023/11/26 06:01:24;;;;;;;21.05;11.18;;;;;;;1.02;83.27;98571.34;5060266;28;20089;-80
2023/11/26 06:03:50;;;;;;;21.27;11.68;;;;;;;1.03;82.84;98583.44;5064413;28;20033;-80
2023/11/26 06:06:15;;;;;;;19.05;10.65;;;;;;;1.15;82.48;98575.84;5061303;28;20046;-80
2023/11/26 06:08:41;;;;;;;29.05;12.43;;;;;;;0.47;84.38;98571.38;5063109;28;20029;-80
2023/11/26 06:11:06;;;;;;;25.27;12.52;;;;;;;-0.21;86.46;98583.31;5037287;28;20091;-79
2023/11/26 06:13:32;;;;;;;22.42;12.50;;;;;;;-0.49;88.41;98582.41;5062803;28;20090;-79
2023/11/26 06:15:57;;;;;;;25.88;13.98;;;;;;;-0.63;89.78;98580.63;5062254;28;20029;-79
2023/11/26 06:18:23;;;;;;;24.52;12.30;;;;;;;-0.13;89.51;98593.66;5048981;28;20025;-80
2023/11/26 06:20:48;;;;;;;21.13;11.77;;;;;;;0.47;87.87;98595.81;5050809;28;20546;-79
2023/11/26 06:23:13;;;;;;;29.80;14.55;;;;;;;-0.51;87.99;98594.06;5047785;28;20032;-79
2023/11/26 06:25:39;;;;;;;30.25;16.95;;;;;;;-0.49;88.41;98592.88;5051442;28;20126;-79
2023/11/26 06:28:05;;;;;;;21.50;14.05;;;;;;;-0.02;88.38;98593.16;5046353;28;20067;-80
2023/11/26 06:30:30;;;;;;;26.73;14.23;;;;;;;-0.48;89.88;98594.50;5067811;28;20093;-80
2023/11/26 06:32:55;;;;;;;27.95;15.68;;;;;;;-0.36;89.50;98594.84;5064388;28;20065;-80
2023/11/26 06:35:21;;;;;;;21.55;12.20;;;;;;;0.27;88.73;98591.41;5051651;28;20064;-80
2023/11/26 06:37:47;;;;;;;27.60;14.82;;;;;;;-0.07;87.64;98585.03;5069695;28;20058;-80
2023/11/26 06:40:12;;;;;;;26.40;15.13;;;;;;;-0.48;89.37;98589.25;5067790;28;20040;-80
2023/11/26 06:42:40;;;;;;;37.28;14.75;;;;;;;0.02;89.31;98583.13;5065684;28;20063;-79
2023/11/26 06:45:06;;;;;;;23.05;14.48;;;;;;;-0.29;89.03;98567.72;5068864;28;20051;-80
2023/11/26 06:47:33;;;;;;;29.83;16.27;;;;;;;-0.32;89.74;98581.19;5064551;28;20078;-80
2023/11/26 06:49:58;;;;;;;21.27;14.05;;;;;;;-0.25;90.60;98602.22;5062757;28;20032;-79
2023/11/26 06:52:24;;;;;;;22.33;13.13;;;;;;;0.20;88.78;98588.72;5066718;28;20086;-80
2023/11/26 06:54:49;;;;;;;27.08;14.98;;;;;;;0.28;88.10;98604.34;5063325;28;20075;-80
2023/11/26 06:57:15;;;;;;;22.27;13.23;;;;;;;0.15;89.37;98603.44;5062099;28;20032;-80
2023/11/26 06:59:40;;;;;;;21.67;11.07;;;;;;;0.68;88.24;98606.28;5058982;28;20028;-80
2023/11/26 07:02:08;;;;;;;24.88;12.23;;;;;;;0.57;88.95;98600.72;5016770;28;20131;-80
2023/11/26 07:04:34;;;;;;;26.20;14.13;;;;;;;0.81;86.49;98600.28;5064813;28;20512;-80
2023/11/26 07:06:59;;;;;;;19.88;12.48;;;;;;;0.55;88.09;98594.84;5063809;28;20079;-80
2023/11/26 07:09:25;;;;;;;19.83;11.63;;;;;;;0.68;87.89;98600.19;5063404;28;20024;-80
2023/11/26 07:11:50;;;;;;;17.90;11.70;;;;;;;1.30;86.43;98589.66;5076204;28;20056;-80
2023/11/26 07:14:16;;;;;;;21.65;12.90;;;;;;;1.12;86.35;98592.81;5063976;28;20589;-81
2023/11/26 07:16:41;;;;;;;29.35;14.40;;;;;;;1.61;83.72;98587.34;5047120;28;20033;-80
2023/11/26 07:19:07;;;;;;;20.85;12.82;;;;;;;1.65;84.12;98598.28;5061512;28;20037;-81
2023/11/26 07:21:39;;;;;;;22.70;12.55;;;;;;;1.56;84.49;98594.19;5063983;28;20030;-80
2023/11/26 07:24:05;;;;;;;19.80;11.85;;;;;;;1.78;83.71;98588.63;5066129;28;20548;-80
2023/11/26 07:26:30;;;;;;;27.92;14.32;;;;;;;1.44;84.00;98597.38;5043178;28;20119;-80
2023/11/26 07:28:56;;;;;;;22.38;11.40;;;;;;;0.83;87.10;98600.13;5064063;28;20074;-80
2023/11/26 07:31:22;;;;;;;24.70;13.07;;;;;;;1.63;84.89;98592.41;5049464;28;20429;-81
2023/11/26 07:33:48;;;;;;;20.00;11.68;;;;;;;1.85;83.82;98589.44;5068564;28;20094;-80
2023/11/26 07:36:24;;;;;;;19.20;11.13;;;;;;;2.00;82.46;98605.88;5060799;28;20498;-80
2023/11/26 07:38:51;;;;;;;21.65;12.85;;;;;;;0.92;86.45;98609.47;5065572;28;20376;-80
2023/11/26 07:41:17;;;;;;;22.20;13.05;;;;;;;1.38;86.70;98600.81;5066144;28;20040;-80
2023/11/26 07:43:43;;;;;;;22.10;14.10;;;;;;;1.30;84.67;98608.88;5066740;28;20040;-80
2023/11/26 07:46:12;;;;;;;26.05;13.50;;;;;;;0.93;88.02;98609.28;5065781;28;20044;-80
2023/11/26 07:48:38;;;;;;;26.30;14.07;;;;;;;0.76;88.95;98600.06;5063219;28;20039;-80
2023/11/26 07:51:03;;;;;;;24.38;13.25;;;;;;;0.58;89.83;98602.38;5065859;28;20032;-80
2023/11/26 07:53:33;;;;;;;20.02;12.35;;;;;;;1.33;88.09;98590.06;5059394;28;20029;-80
2023/11/26 07:56:02;;;;;;;22.48;12.60;;;;;;;1.28;87.59;98591.66;5062846;28;20045;-80
2023/11/26 07:58:28;;;;;;;28.60;15.07;;;;;;;1.37;87.29;98590.50;5045499;28;20044;-80
2023/11/26 08:00:55;;;;;;;19.42;11.50;;;;;;;1.42;87.18;98594.16;5061074;28;20094;-80
2023/11/26 08:03:22;;;;;;;20.55;12.43;;;;;;;1.58;86.86;98589.53;5062348;28;20111;-80
2023/11/26 08:05:48;;;;;;;27.52;14.18;;;;;;;1.34;87.20;98581.19;5047642;28;20564;-80
2023/11/26 08:08:15;;;;;;;21.58;11.82;;;;;;;1.78;86.18;98572.00;5064804;28;20111;-80
2023/11/26 08:10:41;;;;;;;22.77;13.70;;;;;;;1.48;86.40;98582.06;5059428;28;20043;-80
2023/11/26 08:13:07;;;;;;;20.15;12.20;;;;;;;1.76;85.61;98566.13;5063844;28;20029;-80
2023/11/26 08:15:34;;;;;;;23.75;13.57;;;;;;;1.25;87.44;98566.59;5062705;28;21651;-80
2023/11/26 08:17:59;;;;;;;24.52;13.65;;;;;;;1.05;89.69;98570.13;5061919;28;20112;-80
2023/11/26 08:20:25;;;;;;;23.10;12.48;;;;;;;1.73;86.92;98561.25;5061326;28;20120;-80
2023/11/26 08:22:51;;;;;;;30.45;15.45;;;;;;;1.34;86.88;98572.47;5058320;28;20063;-80
2023/11/26 08:25:23;;;;;;;23.13;12.55;;;;;;;1.16;89.23;98562.50;5063552;28;20100;-80
2023/11/26 08:27:51;;;;;;;31.77;16.80;;;;;;;1.10;88.80;98563.28;5060377;28;20044;-80
2023/11/26 08:30:34;;;;;;;34.42;16.75;;;;;;;1.14;88.89;98561.06;5058245;28;20061;-80
2023/11/26 08:33:02;;;;;;;32.45;16.33;;;;;;;0.91;89.67;98565.81;5079751;28;20021;-80
2023/11/26 08:35:29;;;;;;;28.35;15.20;;;;;;;0.89;90.92;98575.69;5058723;28;20040;-80
2023/11/26 08:37:55;;;;;;;26.02;14.75;;;;;;;0.95;91.11;98562.59;5067723;28;20039;-80
2023/11/26 08:40:25;;;;;;;25.17;13.40;;;;;;;1.11;90.59;98564.91;5063789;28;20395;-80
2023/11/26 08:42:53;;;;;;;27.85;13.38;;;;;;;1.37;89.51;98554.50;5064098;28;20495;-80
2023/11/26 08:45:20;;;;;;;30.80;15.68;;;;;;;1.22;89.79;98559.06;5066207;28;20037;-80
2023/11/26 08:47:47;;;;;;;26.17;14.90;;;;;;;1.81;87.17;98564.53;5061647;28;20401;-80
2023/11/26 08:50:13;;;;;;;30.52;16.75;;;;;;;1.45;88.75;98564.03;5067914;28;20476;-81
2023/11/26 08:52:39;;;;;;;37.20;20.65;;;;;;;1.23;90.58;98563.34;5061177;28;20135;-81
2023/11/26 08:55:05;;;;;;;25.33;12.80;;;;;;;2.23;85.81;98561.53;5059979;28;20032;-80
2023/11/26 08:57:33;;;;;;;30.83;16.27;;;;;;;1.71;88.20;98553.56;5062556;28;20039;-81
2023/11/26 08:59:58;;;;;;;23.10;14.70;;;;;;;1.78;89.49;98548.34;5061520;28;20403;-81
2023/11/26 09:02:27;;;;;;;29.95;16.27;;;;;;;1.75;89.33;98539.00;5063094;28;20032;-80
2023/11/26 09:04:52;;;;;;;28.27;16.02;;;;;;;1.46;90.80;98558.56;5024824;28;20499;-81
2023/11/26 09:07:18;;;;;;;24.48;14.05;;;;;;;2.24;87.71;98552.66;5058494;28;20037;-81
2023/11/26 09:09:44;;;;;;;24.95;13.85;;;;;;;2.45;84.70;98559.50;5066811;28;20040;-81
2023/11/26 09:12:09;;;;;;;25.35;14.15;;;;;;;2.47;85.11;98554.84;5037724;28;20400;-80
2023/11/26 09:14:35;;;;;;;24.63;13.20;;;;;;;2.28;85.26;98553.03;5043752;28;20039;-81
2023/11/26 09:17:00;;;;;;;20.77;13.07;;;;;;;2.31;85.98;98559.72;5057653;28;20146;-81
2023/11/26 09:19:27;;;;;;;34.13;15.90;;;;;;;1.98;86.69;98562.34;5054084;28;20158;-81
2023/11/26 09:21:52;;;;;;;23.88;14.25;;;;;;;1.88;88.45;98557.44;5037344;28;20024;-81
2023/11/26 09:24:19;;;;;;;28.33;15.30;;;;;;;1.97;87.67;98558.88;5039164;28;20043;-81
2023/11/26 09:26:45;;;;;;;31.05;15.38;;;;;;;1.97;88.33;98551.00;5038506;28;20112;-81
2023/11/26 09:29:11;;;;;;;25.52;13.88;;;;;;;2.13;87.89;98560.31;5061804;28;20075;-81
2023/11/26 09:31:43;;;;;;;25.20;12.55;;;;;;;2.29;86.83;98559.94;5058506;28;20048;-81
2023/11/26 09:34:09;;;;;;;24.40;12.98;;;;;;;2.13;87.68;98553.25;5054296;28;20489;-81
2023/11/26 09:36:40;;;;;;;21.48;11.75;;;;;;;2.46;85.92;98549.78;5055671;28;20067;-80
2023/11/26 09:39:05;;;;;;;18.70;11.80;;;;;;;2.45;85.83;98548.97;5062275;28;20048;-80
2023/11/26 09:41:31;;;;;;;19.33;10.43;;;;;;;2.57;85.36;98534.19;5060240;28;20028;-79
2023/11/26 09:43:56;;;;;;;18.95;8.43;;;;;;;2.46;85.33;98533.97;5064876;28;20384;-80
2023/11/26 09:46:25;;;;;;;16.55;10.10;;;;;;;2.60;85.39;98539.03;5057749;28;20029;-80
2023/11/26 09:48:51;;;;;;;12.50;8.82;;;;;;;2.70;84.92;98542.06;5060981;28;20027;-81
2023/11/26 09:51:19;;;;;;;14.70;8.88;;;;;;;2.70;84.90;98542.06;5060821;28;20028;-82
2023/11/26 09:53:45;;;;;;;10.35;7.93;;;;;;;2.67;84.70;98542.47;5061585;28;20021;-81
2023/11/26 09:56:13;;;;;;;11.50;8.27;;;;;;;2.76;84.84;98546.50;5069482;28;20388;-81
2023/11/26 09:58:39;;;;;;;14.15;8.63;;;;;;;2.72;85.15;98542.66;5057725;28;20028;-81
2023/11/26 10:01:09;;;;;;;10.13;6.72;;;;;;;2.70;85.24;98535.97;5074481;28;20113;-82
2023/11/26 10:04:00;;;;;;;11.57;6.82;;;;;;;2.70;84.98;98544.69;5062126;28;20040;-81
2023/11/26 10:06:26;;;;;;;9.02;7.03;;;;;;;2.74;84.67;98551.16;5066224;28;20423;-82
2023/11/26 10:08:52;;;;;;;8.50;6.10;;;;;;;2.67;85.00;98539.00;5064963;28;20025;-81
2023/11/26 10:11:22;;;;;;;9.00;5.55;;;;;;;2.65;85.19;98546.31;5057687;28;20047;-81
2023/11/26 10:14:31;;;;;;;9.63;6.55;;;;;;;2.59;85.54;98539.25;5071169;28;20037;-83
2023/11/26 10:17:09;;;;;;;9.55;6.07;;;;;;;2.69;85.26;98539.63;5055830;28;20561;-82
2023/11/26 10:19:34;;;;;;;8.27;6.32;;;;;;;2.63;84.65;98536.00;5062230;28;20028;-82
2023/11/26 10:22:00;;;;;;;10.60;6.85;;;;;;;2.51;84.73;98537.63;5033952;28;20392;-81
2023/11/26 10:24:30;;;;;;;8.77;6.97;;;;;;;2.14;84.92;98525.88;5061599;28;20116;-81
2023/11/26 10:26:57;;;;;;;12.07;7.07;;;;;;;2.19;86.02;98533.19;5061658;28;20047;-82
2023/11/26 10:29:29;;;;;;;10.30;6.93;;;;;;;2.44;85.01;98526.31;5055197;28;20028;-81
2023/11/26 10:32:04;;;;;;;8.57;6.63;;;;;;;2.53;84.56;98532.16;5077135;28;20144;-81
2023/11/26 10:34:33;;;;;;;13.80;8.07;;;;;;;2.31;86.08;98525.50;5056383;28;20107;-81
2023/11/26 10:36:59;;;;;;;9.65;6.30;;;;;;;2.27;86.70;98515.34;5058136;28;20155;-81
2023/11/26 10:39:25;;;;;;;9.25;6.50;;;;;;;2.31;87.14;98514.97;5064798;28;20039;-82
2023/11/26 10:41:51;;;;;;;9.80;7.20;;;;;;;2.19;88.01;98497.16;5086133;28;20756;-82
2023/11/26 10:44:17;;;;;;;14.95;9.38;;;;;;;2.54;86.58;98504.78;5051309;28;20020;-81
2023/11/26 10:46:48;;;;;;;9.40;6.43;;;;;;;2.52;87.03;98504.19;5048407;28;20038;-81
2023/11/26 10:49:27;;;;;;;8.57;6.10;;;;;;;2.66;86.38;98514.50;5065044;28;20749;-82
2023/11/26 10:52:30;;;;;;;14.13;8.77;;;;;;;2.77;86.92;98513.88;5060534;28;20107;-82
2023/11/26 10:55:10;;;;;;;12.52;7.20;;;;;;;2.92;84.91;98503.91;5066120;28;20070;-82
2023/11/26 10:57:40;;;;;;;11.73;6.82;;;;;;;2.86;85.78;98504.72;5061469;28;20029;-82
2023/11/26 11:00:14;;;;;;;9.77;6.90;;;;;;;2.88;86.38;98513.22;5060927;28;20051;-82
2023/11/26 11:02:41;;;;;;;10.60;6.80;;;;;;;2.60;87.01;98511.91;5062356;28;20369;-82
2023/11/26 11:05:09;;;;;;;12.50;8.30;;;;;;;2.75;86.88;98507.19;5061518;28;20035;-81
2023/11/26 11:07:35;;;;;;;11.23;6.97;;;;;;;2.74;86.08;98513.47;5067843;28;20032;-81
2023/11/26 11:10:31;;;;;;;12.05;7.78;;;;;;;2.80;87.27;98510.81;5064380;28;20058;-82
2023/11/26 11:13:03;;;;;;;9.70;6.22;;;;;;;2.83;86.59;98504.31;5063857;28;20106;-82
2023/11/26 11:15:29;;;;;;;10.55;6.95;;;;;;;2.85;87.18;98507.56;5060821;28;20472;-82
2023/11/26 11:17:55;;;;;;;9.55;6.60;;;;;;;2.96;85.96;98499.00;5060871;28;20041;-81
2023/11/26 11:21:00;;;;;;;9.80;6.63;;;;;;;3.06;85.31;98506.50;5061979;28;20029;-81
2023/11/26 11:23:33;;;;;;;11.90;8.23;;;;;;;2.85;86.66;98503.09;5057641;28;20037;-81
2023/11/26 11:26:00;;;;;;;10.63;6.53;;;;;;;3.09;86.12;98503.41;5057273;28;20039;-80
2023/11/26 11:28:38;;;;;;;10.10;6.80;;;;;;;3.04;86.80;98501.41;5057833;28;20058;-80
2023/11/26 11:31:05;;;;;;;9.63;7.10;;;;;;;2.94;86.08;98491.31;5058507;28;20484;-80